Time;durP1;ratioP1;P1;durP2;ratioP2;P2;SDS_P1;SDS_P2;PMS_P1;PMS_P2;Temp;Humidity;BMP_temperature;BMP_pressure;BME280_temperature;BME280_humidity;BME280_pressure;Samples;Min_cycle;Max_cycle;Signal;HPM_P1;HPM_P2
2021/06/28 00:02:10;;;;;;;15.40;12.43;;;21.90;90.70;;;;;;5074096;28;20069;-88
2021/06/28 00:04:36;;;;;;;20.02;13.00;;;21.90;90.80;;;;;;5073756;28;20021;-87
2021/06/28 00:07:01;;;;;;;17.17;12.95;;;21.90;90.90;;;;;;5055757;28;20032;-88
2021/06/28 00:09:27;;;;;;;17.30;13.30;;;21.80;90.90;;;;;;5073427;28;20044;-87
2021/06/28 00:11:53;;;;;;;14.68;13.13;;;21.80;90.90;;;;;;5073674;28;20464;-87
2021/06/28 00:14:19;;;;;;;16.30;13.00;;;21.80;91.00;;;;;;5073617;28;20012;-87
2021/06/28 00:16:44;;;;;;;17.13;12.98;;;21.80;91.00;;;;;;5073971;28;20089;-87
2021/06/28 00:19:10;;;;;;;13.52;12.20;;;21.80;91.20;;;;;;5078538;28;20036;-87
2021/06/28 00:21:38;;;;;;;14.57;11.48;;;21.80;91.20;;;;;;5082500;28;20414;-87
2021/06/28 00:24:05;;;;;;;18.30;13.05;;;21.80;91.20;;;;;;5079616;28;20078;-85
2021/06/28 00:26:31;;;;;;;16.40;12.65;;;21.80;91.20;;;;;;5073811;28;20063;-87
2021/06/28 00:28:57;;;;;;;15.13;12.25;;;21.90;91.30;;;;;;5055898;28;20498;-87
2021/06/28 00:31:23;;;;;;;13.55;11.85;;;21.90;91.20;;;;;;5075167;28;20024;-88
2021/06/28 00:33:49;;;;;;;12.93;11.57;;;21.90;91.10;;;;;;5074517;28;20463;-87
2021/06/28 00:36:15;;;;;;;13.98;11.95;;;22.00;91.10;;;;;;5071878;28;20035;-87
2021/06/28 00:38:41;;;;;;;14.55;11.68;;;22.00;91.00;;;;;;5073383;28;20036;-85
2021/06/28 00:41:07;;;;;;;15.52;12.15;;;22.00;90.90;;;;;;5055083;28;20029;-86
2021/06/28 00:43:33;;;;;;;13.50;10.95;;;22.10;90.90;;;;;;5073835;28;20074;-85
2021/06/28 00:45:59;;;;;;;11.88;10.68;;;22.10;90.80;;;;;;5055141;28;20028;-86
2021/06/28 00:48:24;;;;;;;11.07;9.98;;;22.10;90.70;;;;;;5054851;28;20028;-86
2021/06/28 00:50:53;;;;;;;11.13;10.02;;;22.20;90.60;;;;;;5073884;28;20478;-86
2021/06/28 00:53:24;;;;;;;13.18;9.95;;;22.10;90.40;;;;;;5076299;28;20048;-87
2021/06/28 00:55:51;;;;;;;18.40;10.15;;;22.20;90.30;;;;;;5076728;28;20016;-86
2021/06/28 00:58:17;;;;;;;14.25;9.43;;;22.10;90.10;;;;;;5058584;28;20467;-86
2021/06/28 01:00:43;;;;;;;13.98;9.48;;;22.10;90.10;;;;;;5058414;28;20051;-86
2021/06/28 01:03:09;;;;;;;10.40;9.15;;;22.10;90.10;;;;;;5076371;28;20028;-87
2021/06/28 01:05:37;;;;;;;10.65;9.43;;;22.10;90.00;;;;;;5076335;28;20078;-86
2021/06/28 01:08:05;;;;;;;11.80;9.48;;;22.00;89.90;;;;;;5058931;28;20475;-87
2021/06/28 01:10:32;;;;;;;11.85;9.27;;;22.00;89.90;;;;;;5058638;28;20059;-88
2021/06/28 01:12:58;;;;;;;12.93;9.40;;;21.90;89.90;;;;;;5059082;28;20486;-88
2021/06/28 01:15:24;;;;;;;10.77;9.60;;;21.90;90.00;;;;;;5074980;28;20032;-88
2021/06/28 01:17:51;;;;;;;10.05;9.02;;;21.80;90.00;;;;;;5058448;28;20025;-89
2021/06/28 01:20:21;;;;;;;18.02;9.73;;;21.80;90.10;;;;;;5076539;28;20025;-88
2021/06/28 01:22:50;;;;;;;13.07;9.63;;;21.70;90.20;;;;;;5076471;28;20024;-89
2021/06/28 01:25:18;;;;;;;12.13;9.55;;;21.70;90.30;;;;;;5076149;28;20029;-88
2021/06/28 01:27:45;;;;;;;14.10;10.10;;;21.60;90.30;;;;;;5076187;28;20028;-88
2021/06/28 01:30:19;;;;;;;11.77;9.77;;;21.60;90.40;;;;;;5058194;28;20023;-87
2021/06/28 01:32:46;;;;;;;11.95;8.95;;;21.60;90.40;;;;;;5058149;28;20356;-87
2021/06/28 01:35:14;;;;;;;11.07;9.35;;;21.60;90.50;;;;;;5076954;28;20074;-87
2021/06/28 01:37:40;;;;;;;12.27;9.02;;;21.50;90.60;;;;;;5059742;28;20037;-90
2021/06/28 01:40:08;;;;;;;12.15;9.25;;;21.50;90.70;;;;;;5060271;28;20425;-90
2021/06/28 01:42:35;;;;;;;10.98;9.88;;;21.50;90.70;;;;;;5059676;28;20187;-90
2021/06/28 01:45:06;;;;;;;10.93;9.50;;;21.50;90.90;;;;;;5074369;28;20142;-90
2021/06/28 01:47:32;;;;;;;13.60;9.48;;;21.50;90.90;;;;;;5058899;28;20024;-89
2021/06/28 01:49:58;;;;;;;13.73;9.95;;;21.50;90.90;;;;;;5080014;28;20023;-89
2021/06/28 01:52:24;;;;;;;10.95;9.68;;;21.50;90.90;;;;;;5078400;28;20513;-87
2021/06/28 01:54:49;;;;;;;9.30;8.32;;;21.50;90.90;;;;;;5077050;28;20097;-87
2021/06/28 01:57:15;;;;;;;13.80;8.90;;;21.60;90.90;;;;;;5078952;28;20059;-89
2021/06/28 01:59:41;;;;;;;12.38;9.43;;;21.60;90.80;;;;;;5075058;28;20467;-87
2021/06/28 02:02:07;;;;;;;11.43;9.43;;;21.60;90.80;;;;;;5074112;28;20020;-89
2021/06/28 02:04:35;;;;;;;11.35;9.57;;;21.60;90.70;;;;;;5075764;28;20027;-88
2021/06/28 02:07:04;;;;;;;11.70;9.70;;;21.60;90.80;;;;;;5075481;28;20490;-88
2021/06/28 02:09:30;;;;;;;13.05;9.82;;;21.60;90.70;;;;;;5057547;28;20020;-89
2021/06/28 02:11:57;;;;;;;12.10;9.48;;;21.60;90.70;;;;;;5057466;28;20028;-88
2021/06/28 02:14:22;;;;;;;10.90;9.48;;;21.60;90.60;;;;;;5057547;28;20021;-89
2021/06/28 02:16:49;;;;;;;14.02;9.68;;;21.70;90.70;;;;;;5075371;28;20021;-88
2021/06/28 02:19:17;;;;;;;12.75;9.75;;;21.70;90.70;;;;;;5057311;28;20025;-88
2021/06/28 02:21:44;;;;;;;12.48;9.23;;;21.90;91.00;;;;;;5075898;28;20020;-89
2021/06/28 02:24:10;;;;;;;9.75;8.75;;;22.20;90.90;;;;;;5075134;28;20213;-88
2021/06/28 02:26:37;;;;;;;11.55;8.50;;;22.70;90.40;;;;;;5075107;28;20479;-87
2021/06/28 02:29:04;;;;;;;9.77;8.77;;;23.10;89.30;;;;;;5075384;28;20099;-88
2021/06/28 02:31:29;;;;;;;10.85;8.57;;;23.60;87.50;;;;;;5075135;28;20096;-89
2021/06/28 02:33:56;;;;;;;10.75;8.55;;;24.10;85.40;;;;;;5075049;28;20477;-88
2021/06/28 02:36:24;;;;;;;11.55;8.55;;;24.50;82.80;;;;;;5057133;28;20031;-88
2021/06/28 02:38:51;;;;;;;11.00;8.95;;;24.70;81.00;;;;;;5075394;28;20029;-88
2021/06/28 02:41:18;;;;;;;12.60;9.05;;;24.70;79.70;;;;;;5075361;28;20048;-88
2021/06/28 02:43:45;;;;;;;9.73;8.63;;;24.60;79.10;;;;;;5075421;28;20029;-88
2021/06/28 02:46:11;;;;;;;12.00;9.55;;;24.40;78.90;;;;;;5057283;28;20074;-87
2021/06/28 02:48:38;;;;;;;14.88;9.07;;;24.30;79.20;;;;;;5056886;28;20083;-87
2021/06/28 02:51:05;;;;;;;10.25;9.25;;;24.00;79.50;;;;;;5056846;28;20348;-87
2021/06/28 02:53:31;;;;;;;12.73;9.90;;;23.90;79.90;;;;;;5056859;28;20489;-88
2021/06/28 02:56:12;;;;;;;10.23;8.90;;;23.80;80.20;;;;;;5073467;28;20119;-88
2021/06/28 02:58:45;;;;;;;13.68;9.50;;;23.70;80.50;;;;;;5073494;28;20036;-88
2021/06/28 03:01:13;;;;;;;10.23;8.95;;;23.60;80.90;;;;;;5057164;28;20027;-88
2021/06/28 03:03:39;;;;;;;13.98;9.23;;;23.60;81.00;;;;;;5074780;28;20383;-88
2021/06/28 03:06:05;;;;;;;12.45;9.40;;;23.60;81.10;;;;;;5075160;28;20032;-87
2021/06/28 03:08:30;;;;;;;10.05;8.93;;;23.60;81.30;;;;;;5058263;28;20033;-88
2021/06/28 03:10:57;;;;;;;12.75;9.05;;;23.70;81.40;;;;;;5074867;28;20375;-88
2021/06/28 03:13:22;;;;;;;10.10;8.45;;;23.80;81.40;;;;;;5056062;28;20025;-88
2021/06/28 03:15:48;;;;;;;13.50;9.85;;;23.90;81.20;;;;;;5073075;28;20028;-88
2021/06/28 03:18:14;;;;;;;9.13;8.23;;;24.00;80.90;;;;;;5072832;28;20107;-88
2021/06/28 03:20:39;;;;;;;10.88;9.13;;;24.20;80.30;;;;;;5072816;28;20051;-88
2021/06/28 03:23:06;;;;;;;14.82;10.32;;;24.30;79.90;;;;;;5089646;28;20027;-88
2021/06/28 03:25:32;;;;;;;9.57;8.50;;;24.30;79.50;;;;;;5074320;28;20088;-85
2021/06/28 03:27:57;;;;;;;9.85;8.48;;;24.30;79.30;;;;;;5072740;28;20056;-85
2021/06/28 03:30:23;;;;;;;9.02;8.10;;;24.30;79.20;;;;;;5073856;28;20021;-84
2021/06/28 03:32:49;;;;;;;11.63;8.57;;;24.20;79.00;;;;;;5056681;28;20024;-85
2021/06/28 03:35:15;;;;;;;11.68;8.73;;;24.20;79.00;;;;;;5056199;28;20048;-84
2021/06/28 03:37:41;;;;;;;9.50;8.15;;;24.20;79.10;;;;;;5075913;28;20078;-85
2021/06/28 03:40:11;;;;;;;11.35;8.50;;;24.10;79.00;;;;;;5056817;28;20028;-84
2021/06/28 03:42:37;;;;;;;12.38;8.55;;;24.10;78.90;;;;;;5055876;28;20399;-84
2021/06/28 03:45:09;;;;;;;12.88;9.45;;;24.10;79.00;;;;;;5055613;28;20024;-84
2021/06/28 03:47:35;;;;;;;16.42;9.65;;;24.10;79.00;;;;;;5055550;28;20016;-84
2021/06/28 03:50:01;;;;;;;10.85;9.23;;;24.00;79.00;;;;;;5055429;28;20095;-84
2021/06/28 03:52:27;;;;;;;11.48;9.13;;;24.00;79.00;;;;;;5072044;28;20420;-84
2021/06/28 03:54:52;;;;;;;10.27;9.27;;;24.00;79.10;;;;;;5071986;28;20037;-84
2021/06/28 03:57:18;;;;;;;13.48;9.32;;;24.00;79.00;;;;;;5074318;28;20487;-84
2021/06/28 03:59:44;;;;;;;12.00;9.00;;;24.00;78.90;;;;;;5072356;28;20115;-84
2021/06/28 04:02:09;;;;;;;11.45;8.90;;;24.00;78.90;;;;;;5072092;28;20035;-87
2021/06/28 04:04:35;;;;;;;11.30;9.02;;;23.90;78.70;;;;;;5089447;28;20025;-89
2021/06/28 04:07:01;;;;;;;10.85;8.90;;;24.00;78.80;;;;;;5072817;28;20036;-88
2021/06/28 04:09:26;;;;;;;11.77;8.75;;;23.90;78.80;;;;;;5089406;28;20025;-89
2021/06/28 04:11:52;;;;;;;12.38;8.77;;;23.90;78.70;;;;;;5072517;28;20025;-89
2021/06/28 04:14:18;;;;;;;15.88;7.82;;;23.90;78.80;;;;;;5072371;28;20020;-89
2021/06/28 04:16:44;;;;;;;10.50;8.43;;;23.90;78.90;;;;;;5072029;28;20025;-89
2021/06/28 04:19:09;;;;;;;10.75;8.63;;;24.00;78.90;;;;;;5072099;28;20021;-89
2021/06/28 04:21:35;;;;;;;10.32;7.80;;;24.10;78.70;;;;;;5073722;28;20522;-88
2021/06/28 04:24:04;;;;;;;11.45;8.60;;;24.30;78.40;;;;;;5055566;28;20170;-89
2021/06/28 04:26:30;;;;;;;12.45;8.65;;;24.50;78.00;;;;;;5059632;28;20107;-89
2021/06/28 04:28:56;;;;;;;8.95;8.05;;;24.60;77.40;;;;;;5059806;28;20027;-89
2021/06/28 04:31:22;;;;;;;11.50;8.38;;;24.80;76.60;;;;;;5061706;28;20012;-89
2021/06/28 04:33:48;;;;;;;8.00;7.20;;;24.80;76.10;;;;;;5076182;28;20047;-89
2021/06/28 04:36:14;;;;;;;13.90;7.57;;;24.80;75.80;;;;;;5080856;28;20028;-85
2021/06/28 04:38:39;;;;;;;9.23;7.10;;;24.80;75.70;;;;;;5077650;28;20483;-85
2021/06/28 04:41:05;;;;;;;12.30;7.57;;;24.70;75.60;;;;;;5059007;28;20029;-85
2021/06/28 04:43:31;;;;;;;15.70;7.97;;;24.60;75.40;;;;;;5076732;28;20033;-84
2021/06/28 04:45:57;;;;;;;9.45;7.47;;;24.60;75.50;;;;;;5076381;28;20032;-84
2021/06/28 04:48:22;;;;;;;15.57;8.57;;;24.50;75.50;;;;;;5074663;28;20451;-85
2021/06/28 04:50:48;;;;;;;12.18;8.10;;;24.40;75.50;;;;;;5057985;28;20020;-85
2021/06/28 04:53:14;;;;;;;10.18;7.95;;;24.40;75.80;;;;;;5076940;28;20119;-85
2021/06/28 04:55:40;;;;;;;12.43;8.35;;;24.30;75.60;;;;;;5074953;28;20055;-85
2021/06/28 04:58:06;;;;;;;10.75;8.07;;;24.30;75.60;;;;;;5075133;28;20368;-86
2021/06/28 05:00:31;;;;;;;12.68;8.38;;;24.30;75.80;;;;;;5076340;28;20032;-86
2021/06/28 05:02:57;;;;;;;9.98;8.07;;;24.20;75.70;;;;;;5075903;28;20521;-86
2021/06/28 05:05:23;;;;;;;9.50;8.52;;;24.30;75.70;;;;;;5074614;28;20116;-85
2021/06/28 05:07:49;;;;;;;10.20;9.15;;;24.30;75.60;;;;;;5076253;28;20459;-85
2021/06/28 05:10:15;;;;;;;9.40;8.25;;;24.40;75.50;;;;;;5076363;28;20025;-86
2021/06/28 05:12:42;;;;;;;11.70;9.18;;;24.50;75.40;;;;;;5076611;28;20104;-86
2021/06/28 05:15:10;;;;;;;9.77;8.77;;;24.60;75.20;;;;;;5075933;28;20121;-86
2021/06/28 05:17:36;;;;;;;11.63;9.50;;;24.70;74.90;;;;;;5075732;28;20109;-86
2021/06/28 05:20:04;;;;;;;16.02;9.13;;;24.80;74.40;;;;;;5074255;28;20051;-86
2021/06/28 05:22:30;;;;;;;14.10;9.40;;;24.80;74.20;;;;;;5057878;28;20374;-86
2021/06/28 05:24:56;;;;;;;10.68;9.68;;;24.90;74.20;;;;;;5075484;28;20055;-86
2021/06/28 05:27:27;;;;;;;11.30;9.40;;;25.00;74.00;;;;;;5075875;28;20020;-86
2021/06/28 05:29:56;;;;;;;10.52;8.70;;;25.00;73.80;;;;;;5057802;28;20024;-86
2021/06/28 05:32:28;;;;;;;11.32;8.70;;;25.00;73.60;;;;;;5075586;28;20412;-86
2021/06/28 05:34:54;;;;;;;11.27;9.15;;;25.00;73.20;;;;;;5075593;28;20473;-85
2021/06/28 05:37:20;;;;;;;10.90;8.10;;;25.00;73.30;;;;;;5074717;28;20028;-86
2021/06/28 05:39:47;;;;;;;9.82;8.48;;;25.10;73.20;;;;;;5075401;28;20077;-87
2021/06/28 05:42:13;;;;;;;12.13;7.97;;;25.10;72.90;;;;;;5057863;28;20119;-84
2021/06/28 05:44:39;;;;;;;10.63;8.60;;;25.00;72.80;;;;;;5075936;28;20182;-83
2021/06/28 05:47:05;;;;;;;8.73;7.20;;;25.00;72.90;;;;;;5075266;28;20025;-83
2021/06/28 05:49:34;;;;;;;13.82;8.73;;;25.00;73.10;;;;;;5057879;28;20388;-83
2021/06/28 05:52:00;;;;;;;9.52;8.38;;;25.10;73.10;;;;;;5056965;28;20036;-83
2021/06/28 05:54:25;;;;;;;11.27;6.97;;;25.20;73.00;;;;;;5074636;28;20438;-83
2021/06/28 05:56:51;;;;;;;8.75;7.63;;;25.30;72.70;;;;;;5075000;28;20074;-83
2021/06/28 05:59:21;;;;;;;8.20;7.40;;;25.50;72.40;;;;;;5076038;28;20471;-85
2021/06/28 06:01:46;;;;;;;8.80;7.15;;;25.60;72.10;;;;;;5075213;28;20032;-83
2021/06/28 06:04:14;;;;;;;12.93;7.13;;;25.70;71.60;;;;;;5074791;28;20123;-83
2021/06/28 06:06:44;;;;;;;10.68;7.38;;;26.00;71.30;;;;;;5074627;28;20127;-84
2021/06/28 06:09:10;;;;;;;9.18;7.40;;;26.30;70.80;;;;;;5074950;28;20020;-82
2021/06/28 06:11:36;;;;;;;14.05;7.50;;;27.10;70.60;;;;;;5074941;28;20025;-84
2021/06/28 06:14:03;;;;;;;15.52;9.55;;;28.20;69.50;;;;;;5074848;28;20020;-84
2021/06/28 06:16:29;;;;;;;11.52;8.90;;;29.40;66.90;;;;;;5056849;28;20028;-86
2021/06/28 06:18:55;;;;;;;10.68;7.28;;;30.10;64.10;;;;;;5074545;28;20071;-86
2021/06/28 06:21:22;;;;;;;8.13;7.38;;;30.60;62.30;;;;;;5074617;28;20029;-88
2021/06/28 06:23:49;;;;;;;8.57;7.20;;;30.70;60.80;;;;;;5057751;28;20116;-87
2021/06/28 06:26:15;;;;;;;11.35;7.35;;;30.80;60.40;;;;;;5074785;28;20379;-86
2021/06/28 06:28:41;;;;;;;10.77;7.90;;;31.10;59.80;;;;;;5056885;28;20494;-89
2021/06/28 06:31:06;;;;;;;16.02;7.72;;;31.40;58.80;;;;;;5074625;28;20027;-88
2021/06/28 06:33:32;;;;;;;9.07;7.57;;;31.70;58.10;;;;;;5074804;28;20349;-89
2021/06/28 06:35:58;;;;;;;10.05;8.70;;;32.20;57.50;;;;;;5074257;28;20455;-86
2021/06/28 06:41:11;;;;;;;9.82;8.77;;;32.90;55.40;;;;;;5076168;28;20074;-89
2021/06/28 06:43:37;;;;;;;11.50;8.80;;;32.90;54.80;;;;;;5056766;28;20028;-88
2021/06/28 06:46:03;;;;;;;10.30;7.90;;;32.90;54.30;;;;;;5076996;28;20112;-88
2021/06/28 06:48:29;;;;;;;10.95;7.80;;;33.30;54.30;;;;;;5055427;28;20427;-88
2021/06/28 06:50:55;;;;;;;8.68;7.15;;;33.80;53.80;;;;;;5056008;28;20024;-85
2021/06/28 06:53:21;;;;;;;14.20;6.72;;;34.50;53.30;;;;;;5073815;28;20158;-86
2021/06/28 06:55:47;;;;;;;7.28;6.03;;;35.10;52.20;;;;;;5055988;28;20051;-85
2021/06/28 06:58:12;;;;;;;8.10;5.30;;;35.80;51.10;;;;;;5073413;28;20040;-84
2021/06/28 07:00:41;;;;;;;5.72;5.07;;;36.80;50.00;;;;;;5073426;28;20036;-82
2021/06/28 07:03:07;;;;;;;9.70;5.28;;;37.70;48.60;;;;;;5073495;28;20035;-86
2021/06/28 07:05:33;;;;;;;6.03;5.50;;;38.40;47.30;;;;;;5074296;28;20508;-85
2021/06/28 07:07:59;;;;;;;6.45;5.57;;;38.60;46.20;;;;;;5057110;28;20064;-86
2021/06/28 07:10:25;;;;;;;8.57;5.32;;;38.60;45.90;;;;;;5075482;28;20048;-86
2021/06/28 07:12:51;;;;;;;12.52;7.28;;;38.30;45.40;;;;;;5075018;28;20416;-85
2021/06/28 07:15:19;;;;;;;7.20;6.50;;;38.10;45.60;;;;;;5073670;28;20107;-84
2021/06/28 07:17:45;;;;;;;7.90;5.57;;;38.20;45.60;;;;;;5073155;28;20506;-84
2021/06/28 07:20:15;;;;;;;9.38;5.63;;;38.50;45.50;;;;;;5072649;28;20031;-86
2021/06/28 07:22:41;;;;;;;5.75;4.88;;;39.00;45.20;;;;;;5072048;28;20548;-85
2021/06/28 07:25:09;;;;;;;8.73;5.28;;;39.10;44.40;;;;;;5055359;28;20119;-94
2021/06/28 07:27:36;;;;;;;8.18;5.32;;;38.90;44.00;;;;;;5073827;28;20427;-87
2021/06/28 07:30:05;;;;;;;5.80;5.30;;;38.80;44.40;;;;;;5055621;28;20379;-87
2021/06/28 07:32:31;;;;;;;8.25;5.72;;;38.80;44.30;;;;;;5073617;28;20021;-86
2021/06/28 07:34:57;;;;;;;8.25;5.30;;;38.90;44.50;;;;;;5055608;28;20028;-86
2021/06/28 07:37:23;;;;;;;6.28;5.45;;;39.00;44.10;;;;;;5055171;28;20029;-87
2021/06/28 07:39:48;;;;;;;11.43;5.50;;;38.70;43.50;;;;;;5055795;28;20059;-88
2021/06/28 07:42:14;;;;;;;9.82;6.05;;;38.30;43.90;;;;;;5072849;28;20032;-87
2021/06/28 07:44:40;;;;;;;7.75;4.88;;;38.00;44.30;;;;;;5073337;28;20029;-87
2021/06/28 07:47:06;;;;;;;11.23;4.50;;;37.90;44.80;;;;;;5055333;28;20340;-88
2021/06/28 07:49:32;;;;;;;6.18;4.35;;;38.00;44.80;;;;;;5073573;28;20351;-87
2021/06/28 07:51:58;;;;;;;6.85;4.85;;;37.80;44.30;;;;;;5055006;28;20479;-88
2021/06/28 07:54:25;;;;;;;5.00;4.53;;;37.50;44.50;;;;;;5073750;28;20044;-87
2021/06/28 07:56:51;;;;;;;5.40;4.32;;;37.30;44.90;;;;;;5071494;28;20058;-86
2021/06/28 07:59:17;;;;;;;5.38;4.20;;;37.40;44.90;;;;;;5073528;28;20024;-85
2021/06/28 08:01:42;;;;;;;11.82;4.97;;;37.20;44.60;;;;;;5078823;28;20089;-87
2021/06/28 08:04:08;;;;;;;6.35;4.53;;;36.70;44.80;;;;;;5080313;28;20520;-87
2021/06/28 08:06:35;;;;;;;12.18;5.25;;;36.30;45.40;;;;;;5078659;28;20047;-88
2021/06/28 08:09:01;;;;;;;10.73;4.70;;;36.00;46.00;;;;;;5079472;28;20028;-87
2021/06/28 08:11:27;;;;;;;7.97;4.60;;;36.00;46.20;;;;;;5079269;28;20105;-88
2021/06/28 08:13:54;;;;;;;8.15;4.75;;;36.10;46.30;;;;;;5079755;28;20055;-87
2021/06/28 08:16:21;;;;;;;7.13;4.50;;;36.10;46.00;;;;;;5079765;28;20498;-88
2021/06/28 08:18:52;;;;;;;12.80;5.10;;;36.10;46.30;;;;;;5061345;28;20389;-87
2021/06/28 08:21:19;;;;;;;7.28;5.00;;;36.10;46.30;;;;;;5080368;28;20070;-86
2021/06/28 08:23:46;;;;;;;5.65;4.22;;;36.20;46.20;;;;;;5079358;28;20036;-87
2021/06/28 08:26:12;;;;;;;11.50;4.40;;;35.90;46.10;;;;;;5061258;28;20045;-87
2021/06/28 08:28:39;;;;;;;11.43;4.65;;;35.70;46.40;;;;;;5078406;28;20028;-85
2021/06/28 08:31:06;;;;;;;7.65;5.00;;;35.40;46.80;;;;;;5079440;28;20887;-86
2021/06/28 08:33:32;;;;;;;4.63;4.22;;;35.10;47.20;;;;;;5079626;28;20044;-87
2021/06/28 08:35:59;;;;;;;7.03;4.13;;;35.10;47.50;;;;;;5061514;28;20111;-88
2021/06/28 08:38:25;;;;;;;6.13;5.00;;;35.20;47.50;;;;;;5079090;28;20016;-87
2021/06/28 08:40:52;;;;;;;12.77;5.68;;;35.40;47.30;;;;;;5079703;28;20027;-87
2021/06/28 08:43:18;;;;;;;8.65;7.07;;;35.60;47.00;;;;;;5079785;28;20032;-86
2021/06/28 08:45:44;;;;;;;5.40;4.60;;;35.70;47.30;;;;;;5084056;28;20024;-86
2021/06/28 08:48:10;;;;;;;7.18;6.40;;;35.60;46.70;;;;;;5094680;28;20031;-86
2021/06/28 08:50:38;;;;;;;7.22;5.40;;;35.20;46.50;;;;;;5087566;28;20024;-86
2021/06/28 08:53:05;;;;;;;8.52;5.10;;;35.10;46.90;;;;;;5079859;28;20033;-87
2021/06/28 08:55:34;;;;;;;6.40;4.43;;;35.00;47.10;;;;;;5079977;28;20028;-86
2021/06/28 08:58:02;;;;;;;7.38;4.53;;;35.00;47.20;;;;;;5061732;28;20121;-86
2021/06/28 09:00:31;;;;;;;6.40;4.60;;;35.20;47.50;;;;;;5079682;28;20819;-88
2021/06/28 09:02:59;;;;;;;6.80;4.35;;;35.50;47.40;;;;;;5079820;28;20024;-88
2021/06/28 09:05:28;;;;;;;5.25;4.05;;;35.60;46.90;;;;;;5061519;28;20060;-86
2021/06/28 09:08:11;;;;;;;7.68;4.65;;;35.60;46.70;;;;;;5079131;28;20016;-86
2021/06/28 09:10:40;;;;;;;6.68;5.00;;;35.10;46.30;;;;;;5079348;28;20012;-87
2021/06/28 09:13:06;;;;;;;7.40;5.78;;;34.70;46.70;;;;;;5056903;28;20020;-87
2021/06/28 09:15:35;;;;;;;6.05;4.32;;;34.20;47.20;;;;;;5075737;28;20020;-88
2021/06/28 09:18:25;;;;;;;8.00;4.38;;;33.70;47.70;;;;;;5075708;28;20088;-87
2021/06/28 09:21:07;;;;;;;5.45;4.85;;;33.30;48.60;;;;;;5063511;28;20041;-87
2021/06/28 09:23:33;;;;;;;8.38;4.50;;;33.00;49.00;;;;;;5057328;28;20032;-87
2021/06/28 09:26:00;;;;;;;8.70;6.47;;;32.70;49.50;;;;;;5075426;28;20039;-86
2021/06/28 09:28:41;;;;;;;5.18;4.43;;;32.40;49.90;;;;;;5075449;28;20455;-88
2021/06/28 09:31:09;;;;;;;6.80;5.18;;;32.30;51.40;;;;;;5075893;28;20025;-88
2021/06/28 09:33:38;;;;;;;6.70;4.47;;;32.50;51.00;;;;;;5058036;28;20028;-85
2021/06/28 09:36:19;;;;;;;8.82;4.38;;;32.80;50.90;;;;;;5075301;28;20032;-85
2021/06/28 09:38:45;;;;;;;11.07;4.30;;;33.00;50.40;;;;;;5057066;28;20035;-85
2021/06/28 09:41:32;;;;;;;11.90;4.35;;;32.90;49.60;;;;;;5075109;28;20119;-86
2021/06/28 09:44:05;;;;;;;5.20;4.35;;;32.70;49.50;;;;;;5075383;28;20380;-84
2021/06/28 09:46:31;;;;;;;10.38;4.32;;;32.60;49.70;;;;;;5074600;28;20074;-84
2021/06/28 09:48:58;;;;;;;5.43;4.45;;;32.60;50.00;;;;;;5075662;28;20059;-84
2021/06/28 09:51:24;;;;;;;4.82;4.20;;;32.60;50.20;;;;;;5074664;28;20379;-85
2021/06/28 09:54:04;;;;;;;6.28;4.65;;;32.70;50.40;;;;;;5074761;28;20256;-86
2021/06/28 09:56:30;;;;;;;8.27;4.38;;;32.90;50.30;;;;;;5056489;28;20039;-85
2021/06/28 09:58:56;;;;;;;6.68;4.30;;;33.00;49.90;;;;;;5067715;28;20029;-85
2021/06/28 10:01:26;;;;;;;10.57;4.32;;;33.10;49.60;;;;;;5074642;28;20449;-87
2021/06/28 10:03:56;;;;;;;10.10;4.40;;;32.90;49.60;;;;;;5074130;28;20378;-79
2021/06/28 10:09:14;;;;;;;5.95;4.30;;;32.80;50.10;;;;;;5074594;28;20028;-84
2021/06/28 10:11:45;;;;;;;9.52;4.70;;;32.90;50.20;;;;;;5074947;28;20016;-84
2021/06/28 10:14:11;;;;;;;8.38;4.70;;;33.10;50.00;;;;;;5074178;28;20025;-86
2021/06/28 10:16:39;;;;;;;6.15;4.45;;;33.10;49.70;;;;;;5074365;28;20417;-84
2021/06/28 10:19:09;;;;;;;5.70;4.18;;;33.00;49.30;;;;;;5074637;28;20340;-85
2021/06/28 10:21:36;;;;;;;6.22;4.80;;;32.70;49.20;;;;;;5056551;28;20502;-85
2021/06/28 10:24:02;;;;;;;7.07;4.07;;;32.60;49.40;;;;;;5074164;28;20028;-85
2021/06/28 10:26:28;;;;;;;8.27;4.32;;;32.60;49.50;;;;;;5073932;28;20127;-85
2021/06/28 10:28:55;;;;;;;7.38;4.22;;;32.60;49.60;;;;;;5074471;28;20066;-86
2021/06/28 10:31:21;;;;;;;5.78;4.43;;;32.70;49.50;;;;;;5074096;28;20032;-85
2021/06/28 10:33:54;;;;;;;4.28;3.88;;;32.80;49.30;;;;;;5056669;28;20024;-84
2021/06/28 10:36:24;;;;;;;6.60;4.80;;;32.80;49.20;;;;;;5056221;28;20032;-84
2021/06/28 10:38:55;;;;;;;5.72;4.40;;;32.80;49.20;;;;;;5074535;28;20032;-85
2021/06/28 10:41:39;;;;;;;;;;;32.70;49.20;;;;;;5073989;28;20487;-83
2021/06/28 10:44:17;;;;;;;7.63;4.13;;;32.60;49.30;;;;;;5073321;28;20339;-82
2021/06/28 10:46:46;;;;;;;4.40;4.00;;;32.60;49.20;;;;;;5073784;28;20066;-83
2021/06/28 10:49:17;;;;;;;9.32;4.53;;;32.50;49.40;;;;;;5072392;28;20396;-84
2021/06/28 10:51:50;;;;;;;9.95;4.18;;;32.40;49.50;;;;;;5054764;28;20356;-82
2021/06/28 10:54:31;;;;;;;5.97;4.20;;;32.50;50.10;;;;;;5072722;28;20131;-81
2021/06/28 10:56:58;;;;;;;10.05;7.90;;;32.60;50.00;;;;;;5072248;28;20032;-82
2021/06/28 10:59:26;;;;;;;8.13;7.25;;;32.60;49.90;;;;;;5054451;28;20024;-80
2021/06/28 11:01:56;;;;;;;6.38;4.28;;;32.60;50.20;;;;;;5071976;28;20020;-79
2021/06/28 11:04:34;;;;;;;8.70;4.60;;;32.60;50.50;;;;;;5072105;28;20024;-80
2021/06/28 11:06:59;;;;;;;8.63;4.30;;;32.70;50.10;;;;;;5071486;28;20115;-81
2021/06/28 11:09:54;;;;;;;13.13;4.80;;;32.80;50.10;;;;;;5071676;28;20151;-80
2021/06/28 11:12:35;;;;;;;5.57;4.50;;;32.70;49.90;;;;;;5071374;28;20043;-80
2021/06/28 11:15:12;;;;;;;8.80;4.55;;;32.50;49.60;;;;;;5071047;28;20028;-81
2021/06/28 11:17:52;;;;;;;8.10;4.75;;;32.30;49.90;;;;;;5071466;28;20108;-80
2021/06/28 11:20:38;;;;;;;7.95;4.47;;;32.10;50.30;;;;;;5053842;28;20024;-81
2021/06/28 11:23:13;;;;;;;6.25;4.47;;;32.00;50.50;;;;;;5071769;28;20052;-81
2021/06/28 11:25:48;;;;;;;6.75;4.20;;;32.00;51.00;;;;;;5071130;28;20028;-81
2021/06/28 11:28:17;;;;;;;5.03;4.30;;;32.10;51.10;;;;;;5071128;28;20028;-80
2021/06/28 11:31:16;;;;;;;5.20;3.50;;;32.10;50.70;;;;;;5071247;28;20013;-81
2021/06/28 11:33:50;;;;;;;10.45;3.65;;;32.00;50.00;;;;;;5072037;28;20021;-81
2021/06/28 11:36:31;;;;;;;16.70;5.38;;;31.80;49.70;;;;;;5070808;28;20107;-80
2021/06/28 11:39:00;;;;;;;5.65;3.50;;;31.60;50.00;;;;;;5070696;28;20127;-79
2021/06/28 11:41:27;;;;;;;3.85;3.40;;;31.60;50.30;;;;;;5070717;28;20028;-81
2021/06/28 11:44:00;;;;;;;6.10;4.45;;;31.70;50.40;;;;;;5053509;28;20085;-82
2021/06/28 11:46:25;;;;;;;5.18;3.28;;;31.80;50.40;;;;;;5071177;28;20413;-80
2021/06/28 11:48:57;;;;;;;4.45;3.60;;;31.90;50.60;;;;;;5071409;28;20108;-81
2021/06/28 11:51:24;;;;;;;;;;;32.10;50.40;;;;;;5071235;28;20024;-81
2021/06/28 11:53:53;;;;;;;7.25;3.75;;;32.10;50.40;;;;;;5071047;28;20069;-81
2021/06/28 11:56:34;;;;;;;7.47;3.60;;;32.30;50.00;;;;;;5070795;28;20103;-82
2021/06/28 11:59:08;;;;;;;4.68;3.20;;;32.40;49.70;;;;;;5071149;28;20096;-81
2021/06/28 12:01:40;;;;;;;6.00;3.80;;;32.30;49.50;;;;;;5071274;28;20032;-82
2021/06/28 12:04:12;;;;;;;5.78;3.80;;;32.30;49.70;;;;;;5071482;28;20036;-82
2021/06/28 12:06:38;;;;;;;6.22;4.07;;;32.50;49.90;;;;;;5071128;28;20524;-81
2021/06/28 12:09:07;;;;;;;10.80;4.75;;;32.70;50.00;;;;;;5071099;28;20024;-82
2021/06/28 12:11:35;;;;;;;4.38;3.72;;;32.80;49.70;;;;;;5071381;28;20051;-82
2021/06/28 12:14:01;;;;;;;3.58;3.28;;;32.90;49.30;;;;;;5053374;28;20025;-82
2021/06/28 12:16:29;;;;;;;5.28;3.90;;;32.90;49.00;;;;;;5071382;28;20020;-81
2021/06/28 12:19:08;;;;;;;5.65;3.53;;;32.80;48.90;;;;;;5070542;28;20025;-81
2021/06/28 12:21:37;;;;;;;8.55;4.68;;;32.60;49.10;;;;;;5053456;28;20029;-81
2021/06/28 12:24:10;;;;;;;13.48;5.20;;;32.40;50.40;;;;;;5071650;28;20020;-82
2021/06/28 12:26:37;;;;;;;5.80;4.30;;;32.30;50.50;;;;;;5071649;28;20111;-81
2021/06/28 12:29:26;;;;;;;13.68;4.40;;;32.30;50.60;;;;;;5071436;28;20020;-82
2021/06/28 12:31:59;;;;;;;7.70;5.03;;;32.20;50.40;;;;;;5070424;28;20025;-83
2021/06/28 12:34:24;;;;;;;7.18;4.20;;;32.10;50.30;;;;;;5072693;28;20016;-81
2021/06/28 12:36:51;;;;;;;13.00;5.30;;;31.90;50.60;;;;;;5072018;28;20475;-82
2021/06/28 12:39:28;;;;;;;11.57;4.75;;;31.80;50.90;;;;;;5054338;28;20021;-81
2021/06/28 12:42:08;;;;;;;8.70;4.72;;;31.80;51.20;;;;;;5053767;28;20119;-80
2021/06/28 12:44:34;;;;;;;8.40;4.35;;;31.80;51.40;;;;;;5071833;28;20020;-81
2021/06/28 12:47:00;;;;;;;5.10;4.60;;;31.80;51.50;;;;;;5072582;28;20028;-81
2021/06/28 12:49:26;;;;;;;7.75;3.90;;;31.70;51.50;;;;;;5075201;28;20025;-80
2021/06/28 12:51:51;;;;;;;5.50;4.38;;;31.60;51.90;;;;;;5075623;28;20421;-80